首页
METAR-TAF:

METAR-TAF

机场 :

伊莎貝拉國際機場

聖多明哥, 多米尼加共和国

纬度: 18-34-32N, 经度: 069-58-53W, 海拔: 15米

当前天气观测

该预报发布于14分钟前的16:00 UTC
风速10节,风向
温度 32°C
湿度 63%
气压 1018 hPa
能见度10公里或以上
多云层高于2000英尺

METAR: MDJB 161600Z 36010KT 9999 BKN020 32/24 Q1018 NOSIG

时间: 12:14 (16:14 UTC)

预报

该预报发布于6小时和14分钟前的10:00 UTC
预报有效从16日的 12点(UTC)到 17日的 12点(UTC)
风速节,风向
能见度10公里或以上
散云层高于1800英尺
散云层高于30000英尺
成为
从 16日的 16点(UTC)到 16日的 18点(UTC)
风速8节,风向东南
几率 40% :
短暂存在
从 16日的 17点(UTC)到 16日的 23点(UTC)
能見度: 7000
少量云层高于1500英尺, 积雨云.
多云层高于1600英尺
多云层高于7000英尺
雷暴, 小雨

TAF: MDJB 161000Z 1612/1712 00000KT 9999 SCT018 SCT300 BECMG 1616/1618 14008KT PROB40 TEMPO 1617/1623 7000 -TSRA FEW015CB BKN016 BKN070

超过4000个机场的气象观测和天气预报(METAR&TAF报告)。

可查询的气象台以黄色和红色小点在地图上表示。

将鼠标移到小点上方,可查看气象台名称。

然后点击查看天气观测和预报。

如需切换地图:点击带黑十字的绿色按钮放大地图;点击带横线的绿色按钮缩小地图;或者点击绿色箭头查看邻近地区的地图。


METAR-TAF: